• Join FlightAware (Why Join?)
  • Login
  • US Flag 
04:43AM EDT


 

Airport Tracker/Info


-or-


 

Live Flight TrackerFlight Track Log ✈ QXE426 ✈ 25-Apr-2012 ✈ KSEA - KBOI

Flight Track Log - Related Links

Times and Time Zones

All times are in EDT time to prevent confusion due to time zone crossing. See the QXE426 flight status page for this flight to view local times or setup timezone preferences in your user account.

Time Position Orientation Groundspeed Altitude Reporting Facility
EDT Latitude Longitude Course Direction KTS MPH feet Rate Location/Type
05:40PM 47.4364 -122.3064 161° South 148 170 1,400  Level Seattle Center
05:40PM 47.4058 -122.2906 103° East 174 200 2,300 1,200 Climbing Seattle Center
05:41PM 47.3908 -122.1972 92° East 236 272 3,600 1,260 Climbing Seattle Center
05:42PM 47.3897 -122.1431 97° East 248 285 4,400 1,440 Climbing Seattle Center
05:43PM 47.3811 -122.0383 107° East 259 298 6,000 1,440 Climbing Seattle Center
05:44PM 47.3600 -121.9353 109° East 269 310 7,400 1,560 Climbing Seattle Center
05:45PM 47.3367 -121.8344 108° East 265 305 9,200 1,800 Climbing Seattle Center
05:46PM 47.3097 -121.7150 110° East 261 300 11,200 1,860 Climbing Seattle Center
05:47PM 47.2856 -121.6172 109° East 258 297 13,000 1,620 Climbing Seattle Center
05:48PM 47.2631 -121.5183 108° East 258 297 14,500 1,440 Climbing Seattle Center
05:49PM 47.2417 -121.4194 108° East 257 296 16,000 1,320 Climbing Seattle Center
05:50PM 47.2197 -121.3194 109° East 259 298 17,200 1,140 Climbing Seattle Center
05:51PM 47.1958 -121.2164 109° East 266 306 18,400 1,020 Climbing Seattle Center
05:52PM 47.1706 -121.1058 108° East 287 330 19,300 1,020 Climbing Seattle Center
05:53PM 47.1414 -120.9706 119° Southeast 291 335 20,600 1,140 Climbing Seattle Center
05:54PM 47.1064 -120.8794 152° Southeast 266 306 21,700 960 Climbing Seattle Center
05:55PM 47.0503 -120.8353 152° Southeast 234 269 22,600 600 Climbing Seattle Center
05:56PM 46.9956 -120.7922 150° Southeast 231 266 23,000 180 Climbing Seattle Center
05:57PM 46.9353 -120.7406 151° Southeast 248 285 23,000  Level Seattle Center
05:58PM 46.8694 -120.6864 151° Southeast 273 314 23,000  Level Seattle Center
05:59PM 46.8003 -120.6303 151° Southeast 282 325 23,000  Level Seattle Center
06:00PM 46.7153 -120.5622 150° Southeast 291 335 23,000  Level Seattle Center
06:01PM 46.6428 -120.5008 152° Southeast 300 345 23,000  Level Seattle Center
06:02PM 46.5700 -120.4447 130° Southeast 299 344 23,000  Level Seattle Center
06:03PM 46.5147 -120.3483 128° Southeast 317 365 23,000  Level Seattle Center
06:04PM 46.4603 -120.2486 130° Southeast 320 368 23,000  Level Seattle Center
06:05PM 46.4050 -120.1533 130° Southeast 315 362 23,000  Level Seattle Center
06:06PM 46.3492 -120.0556 130° Southeast 316 364 23,000  Level Seattle Center
06:08PM 46.2939 -119.9586 130° Southeast 315 362 23,000  Level Seattle Center
06:09PM 46.2264 -119.8425 130° Southeast 316 364 23,000  Level Seattle Center
06:10PM 46.1722 -119.7481 130° Southeast 311 358 23,000  Level Seattle Center
06:11PM 46.1161 -119.6500 130° Southeast 314 361 23,000  Level Seattle Center
06:12PM 46.0592 -119.5533 130° Southeast 317 365 23,000  Level Seattle Center
06:13PM 46.0022 -119.4556 130° Southeast 318 366 23,000  Level Seattle Center
06:14PM 45.9450 -119.3589 130° Southeast 320 368 23,000  Level Seattle Center
06:15PM 45.8892 -119.2622 130° Southeast 317 365 23,000  Level Seattle Center
06:16PM 45.8328 -119.1667 131° Southeast 316 364 23,000  Level Seattle Center
06:17PM 45.7758 -119.0722 130° Southeast 315 362 23,000  Level Seattle Center
06:18PM 45.7092 -118.9581 135° Southeast 313 360 23,000  Level Seattle Center
06:19PM 45.6492 -118.8717 138° Southeast 309 356 23,000  Level Seattle Center
06:20PM 45.5861 -118.7908 137° Southeast 305 351 23,000  Level Seattle Center
06:21PM 45.5239 -118.7078 136° Southeast 307 353 23,000  Level Seattle Center
06:22PM 45.4625 -118.6233 138° Southeast 308 354 23,000  Level Seattle Center
06:23PM 45.3989 -118.5406 137° Southeast 310 357 23,000  Level Seattle Center
06:24PM 45.3361 -118.4561 137° Southeast 311 358 23,000  Level Seattle Center
06:25PM 45.2722 -118.3728 137° Southeast 312 359 23,000  Level Seattle Center
06:26PM 45.1958 -118.2722 137° Southeast 314 361 23,000  Level Seattle Center
06:27PM 45.1322 -118.1875 137° Southeast 315 362 23,000  Level Seattle Center
06:28PM 45.0686 -118.1047 137° Southeast 314 361 23,000  Level Seattle Center
06:29PM 45.0067 -118.0239 138° Southeast 315 362 23,000  Level Seattle Center
06:30PM 44.9333 -117.9294 137° Southeast 318 366 23,000  Level Seattle Center
06:31PM 44.8722 -117.8483 138° Southeast 317 365 23,000  Level Seattle Center
06:32PM 44.7983 -117.7547 138° Southeast 319 367 23,000  Level Seattle Center
06:33PM 44.7347 -117.6731 138° Southeast 322 371 23,000  Level Seattle Center
06:34PM 44.6711 -117.5917 137° Southeast 323 372 23,000  Level Seattle Center
06:35PM 44.5983 -117.4978 142° Southeast 320 368 23,000  Level Seattle Center
06:36PM 44.5300 -117.4236 151° Southeast 324 373 23,000  Level Seattle Center
06:37PM 44.4469 -117.3592 151° Southeast 314 361 23,000 -240 Level Seattle Center
06:38PM 44.3753 -117.3044 150° Southeast 310 357 22,600 -900 Descending Seattle Center
06:39PM 44.3000 -117.2436 151° Southeast 320 368 21,200 -1,560 Descending Seattle Center
06:41PM 44.1725 -117.1442 150° Southeast 325 374 18,800 -1,560 Descending Salt Lake Center
06:42PM 44.0961 -117.0833 151° Southeast 329 379 17,300 -1,560 Descending Salt Lake Center
06:43PM 44.0086 -117.0147 151° Southeast 326 375 15,700 -1,500 Descending Salt Lake Center
06:44PM 43.9328 -116.9553 151° Southeast 328 377 14,300 -1,320 Descending Salt Lake Center
06:45PM 43.8467 -116.8894 150° Southeast 318 366 13,000 -720 Descending Salt Lake Center
06:46PM 43.7778 -116.8344 128° Southeast 303 349 12,900 -960 Descending Salt Lake Center
06:47PM 43.7325 -116.7536 111° Southeast 286 329 11,100 -1,920 Descending Salt Lake Center
06:48PM 43.7011 -116.6386 114° Southeast 284 327 9,000 -1,860 Descending Salt Lake Center
06:49PM 43.6711 -116.5467 113° Southeast 277 319 7,300 -1,320 Descending Salt Lake Center
06:50PM 43.6428 -116.4536 116° Southeast 238 274 6,300 -1,200 Descending Salt Lake Center
06:51PM 43.6172 -116.3806 115° Southeast 202 232 4,900 -1,140 Descending Salt Lake Center
06:52PM 43.5961 -116.3192 112° Southeast 188 216 4,000 -780 Descending Salt Lake Center
06:53PM 43.5811 -116.2667 114° Southeast 156 180 3,400 -420 Descending Salt Lake Center
06:54PM 43.5633 -116.2128 114° Southeast 152 175 3,200 -240 Descending Salt Lake Center